• Join FlightAware (Why Join?)
  • Login
  • US Flag 
04:36PM EDT


 

Airport Tracker/Info


-or-


 

Live Flight TrackerFlight Track Log ✈ SWA1728 ✈ 25-Apr-2013 ✈ KDEN - KMDW

Flight Track Log - Related Links

Times and Time Zones

All times are in EDT time to prevent confusion due to time zone crossing. See the SWA1728 flight status page for this flight to view local times or setup timezone preferences in your user account.

Time Position Orientation Groundspeed Altitude Reporting Facility
EDT Latitude Longitude Course Direction KTS MPH feet Rate Location/Type
06:39PM 39.8833 -104.5333 90° East 233 268 8,000  Level Denver TRACON
06:40PM 39.8833 -104.4167 90° East 272 313 10,500 1,860 Climbing Denver TRACON
06:41PM 39.8742 -104.3889 113° Southeast 286 329 10,800 1,920 Climbing Denver Center
06:42PM 39.8739 -104.2569 90° East 338 389 13,300 2,220 Climbing Denver Center
06:43PM 39.8733 -104.1242 90° East 366 421 15,400 2,100 Climbing Denver Center
06:44PM 39.8714 -103.9725 91° East 388 447 17,700 2,040 Climbing Denver Center
06:45PM 39.8761 -103.8239 88° East 410 472 19,700 1,740 Climbing Denver Center
06:46PM 39.8892 -103.6792 83° East 417 480 21,400 2,040 Climbing Denver Center
06:47PM 39.9106 -103.5039 81° East 437 503 24,000 2,100 Climbing Denver Center
06:48PM 39.9281 -103.3406 82° East 435 501 25,800 1,500 Climbing Denver Center
06:49PM 39.9450 -103.1850 82° East 452 520 27,100 1,200 Climbing Denver Center
06:50PM 39.9658 -102.9992 82° East 464 534 28,400 1,080 Climbing Denver Center
06:51PM 39.9842 -102.8331 82° East 482 555 29,400 1,140 Climbing Denver Center
06:52PM 40.0058 -102.6336 82° East 497 572 30,800 1,560 Climbing Denver Center
06:53PM 40.0219 -102.4642 83° East 495 570 32,700 1,440 Climbing Denver Center
06:54PM 40.0417 -102.2719 82° East 485 558 33,800 900 Climbing Denver Center
06:55PM 40.0597 -102.1047 82° East 486 559 34,600 540 Climbing Denver Center
06:56PM 40.0803 -101.9053 82° East 493 567 35,000 180 Climbing Denver Center
06:57PM 40.0967 -101.7342 83° East 497 572 35,000  Level Denver Center
06:58PM 40.1144 -101.5633 82° East 498 573 35,000  Level Denver Center
06:59PM 40.1322 -101.3639 83° East 497 572 35,000  Level Denver Center
07:00PM 40.1494 -101.1914 83° East 502 578 35,000  Level Denver Center
07:01PM 40.1678 -100.9900 83° East 502 578 35,000  Level Denver Center
07:02PM 40.1844 -100.8178 83° East 503 579 35,000  Level Denver Center
07:03PM 40.2025 -100.6181 83° East 499 574 35,000  Level Denver Center
07:04PM 40.2064 -100.4447 88° East 502 578 35,000  Level Denver Center
07:05PM 40.2094 -100.2433 89° East 499 574 35,000  Level Denver Center
07:06PM 40.2122 -100.0697 89° East 500 575 35,000  Level Denver Center
07:07PM 40.2147 -99.8581 89° East 498 573 35,000  Level Denver Center
07:08PM 40.2175 -99.6789 89° East 495 570 35,000  Level Denver Center
07:09PM 40.2186 -99.4981 89° East 498 573 35,000  Level Denver Center
07:10PM 40.2292 -99.3192 86° East 495 570 35,000  Level Denver Center
07:12PM 40.2469 -99.1381 83° East 501 577 35,000  Level Denver Center
07:13PM 40.2631 -98.9614 83° East 495 570 35,000  Level Denver Center
07:13PM 40.2731 -98.8544 83° East 497 572 35,000  Level Minneapolis Center
07:14PM 40.2883 -98.6744 84° East 499 574 35,000  Level Minneapolis Center
07:15PM 40.3033 -98.4958 84° East 497 572 35,000  Level Minneapolis Center
07:16PM 40.3214 -98.2775 84° East 502 578 35,000 360 Level Minneapolis Center
07:17PM 40.3358 -98.0936 84° East 507 583 35,800 480 Climbing Minneapolis Center
07:18PM 40.3508 -97.9089 84° East 510 587 36,000 540 Climbing Minneapolis Center
07:19PM 40.3664 -97.7247 84° East 510 587 37,000 480 Climbing Minneapolis Center
07:20PM 40.3803 -97.5411 84° East 508 585 37,000  Level Minneapolis Center
07:21PM 40.3956 -97.3322 84° East 511 588 37,000  Level Minneapolis Center
07:22PM 40.4092 -97.1481 84° East 510 587 37,000  Level Minneapolis Center
07:23PM 40.4228 -96.9617 84° East 514 592 37,000  Level Minneapolis Center
07:24PM 40.4369 -96.7753 84° East 515 593 37,000  Level Minneapolis Center
07:25PM 40.4486 -96.5894 85° East 514 592 37,000  Level Minneapolis Center
07:27PM 40.4631 -96.3669 85° East 513 590 37,000  Level Minneapolis Center
07:28PM 40.4761 -96.1819 85° East 511 588 37,000  Level Minneapolis Center
07:29PM 40.4875 -95.9981 85° East 511 588 37,000  Level Minneapolis Center
07:30PM 40.5050 -95.8125 83° East 513 590 37,000  Level Minneapolis Center
07:31PM 40.5303 -95.6328 79° East 506 582 37,000  Level Minneapolis Center
07:32PM 40.5597 -95.4164 80° East 505 581 37,000  Level Minneapolis Center
07:33PM 40.5828 -95.2361 80° East 503 579 37,000  Level Minneapolis Center
07:34PM 40.6064 -95.0544 80° East 505 581 37,000  Level Minneapolis Center
07:35PM 40.6289 -94.8747 81° East 503 579 37,000  Level Minneapolis Center
07:36PM 40.6517 -94.6944 80° East 501 577 37,000  Level Minneapolis Center
07:37PM 40.6739 -94.4925 82° East 502 578 37,000  Level Minneapolis Center
07:38PM 40.6958 -94.3125 81° East 501 577 37,000  Level Minneapolis Center
07:39PM 40.7175 -94.1328 81° East 501 577 37,000  Level Minneapolis Center
07:40PM 40.7397 -93.9519 81° East 502 578 37,000  Level Minneapolis Center
07:41PM 40.7628 -93.7369 82° East 498 573 37,000  Level Minneapolis Center
07:42PM 40.7842 -93.5583 81° East 497 572 37,000  Level Minneapolis Center
07:43PM 40.8042 -93.3781 82° East 498 573 37,000  Level Minneapolis Center
07:44PM 40.8236 -93.1981 82° East 498 573 37,000  Level Minneapolis Center
07:45PM 40.8431 -93.0178 82° East 499 574 37,000  Level Minneapolis Center
07:46PM 40.8619 -92.8369 82° East 498 573 37,000  Level Minneapolis Center
07:47PM 40.8700 -92.7639 82° East 496 571 37,000 -540 Level Chicago Center
07:47PM 40.8856 -92.6197 82° East 498 573 36,500 -900 Descending Minneapolis Center
07:48PM 40.8933 -92.5447 82° East 504 580 36,100 -1,020 Descending Chicago Center
07:49PM 40.9117 -92.3642 82° East 499 574 35,100 -960 Descending Chicago Center
07:50PM 40.9294 -92.1853 82° East 493 567 34,200 -900 Descending Chicago Center
07:51PM 40.9472 -92.0028 83° East 500 575 33,300 -960 Descending Chicago Center
07:52PM 40.9661 -91.8222 82° East 498 573 32,300 -960 Descending Chicago Center
07:53PM 40.9844 -91.6303 83° East 499 574 31,400 -660 Descending Chicago Center
07:54PM 41.0008 -91.4475 83° East 500 575 31,000 -240 Descending Chicago Center
07:55PM 41.0181 -91.2650 83° East 500 575 31,000 -540 Level Chicago Center
07:56PM 41.0381 -91.0458 83° East 499 574 29,900 -2,040 Descending Chicago Center
07:57PM 41.0539 -90.8667 83° East 490 564 26,900 -2,820 Descending Chicago Center
07:58PM 41.0689 -90.6900 84° East 484 557 24,100 -1,560 Descending Chicago Center
07:59PM 41.0844 -90.5219 83° East 463 533 23,700 -780 Descending Chicago Center
08:00PM 41.1003 -90.3578 83° East 453 521 22,600 -1,020 Descending Chicago Center
08:01PM 41.1342 -90.2064 73° East 421 484 21,600 -1,200 Descending Chicago Center
08:02PM 41.1681 -90.0614 73° East 411 473 20,200 -1,800 Descending Chicago Center
08:03PM 41.2069 -89.8922 73° East 399 459 17,900 -2,220 Descending Chicago Center
08:04PM 41.2372 -89.7531 74° East 392 451 15,600 -1,680 Descending Chicago Center
08:05PM 41.2664 -89.6181 74° East 381 438 14,400 -1,080 Descending Chicago Center
08:06PM 41.2961 -89.4869 73° East 371 427 13,400 -1,020 Descending Chicago Center
08:07PM 41.3244 -89.3586 74° East 363 418 12,400 -1,020 Descending Chicago Center
08:08PM 41.3522 -89.2311 74° East 359 413 11,400 -1,020 Descending Chicago Center
08:09PM 41.3786 -89.1083 74° East 344 396 10,400 -960 Descending Chicago Center
08:10PM 41.4053 -88.9736 75° East 316 364 9,500 -960 Descending Chicago Center
08:11PM 41.4286 -88.8700 73° East 297 342 8,500 -1,020 Descending Chicago Center
08:12PM 41.4517 -88.7653 74° East 297 342 7,500 -1,020 Descending Chicago Center
08:13PM 41.4736 -88.6658 74° East 291 335 6,500 -780 Descending Chicago Center
08:14PM 41.5011 -88.5675 69° East 286 329 6,000 -300 Descending Chicago Center
08:16PM 41.5300 -88.4689 69° East 285 328 6,000 -540 Level Chicago Center
08:17PM 41.5642 -88.3542 68° East 282 325 5,000 -540 Descending Chicago Center
08:18PM 41.5775 -88.2600 79° East 272 313 5,000  Level Chicago Center
08:19PM 41.5767 -88.1600 91° East 269 310 5,000  Level Chicago Center
08:20PM 41.5667 -88.0589 97° East 270 311 5,000  Level Chicago Center
08:21PM 41.5681 -87.9578 89° East 270 311 5,000  Level Chicago Center
08:22PM 41.5736 -87.8592 86° East 267 307 5,000 -60 Level Chicago Center
08:23PM 41.5794 -87.7614 85° East 266 306 4,900 -480 Descending Chicago Center
08:24PM 41.6322 -87.6853 47° Northeast 241 277 4,100 -960 Descending Chicago Center
08:24PM 41.6500 -87.6500 56° Northeast 222 255 3,500 -900 Descending Chicago TRACON
08:25PM 41.7000 -87.6500 360° North 188 216 2,800 -840 Descending Chicago TRACON
08:26PM 41.7333 -87.6833 323° Northwest 150 173 1,900 -840 Descending Chicago TRACON
08:27PM 41.7667 -87.7167 323° Northwest 132 152 1,200 -720 Descending Chicago TRACON